Time;durP1;ratioP1;P1;durP2;ratioP2;P2;SDS_P1;SDS_P2;PMS_P1;PMS_P2;Temp;Humidity;BMP_temperature;BMP_pressure;BME280_temperature;BME280_humidity;BME280_pressure;Samples;Min_cycle;Max_cycle;Signal;HPM_P1;HPM_P2
2021/07/30 00:02:13;;;;;;;;;11.20;11.00;;;;;25.31;46.15;98406.59;6237372;27;96483;-61
2021/07/30 00:05:17;;;;;;;;;11.20;10.80;;;;;25.24;46.39;98412.63;6243637;27;96840;-61
2021/07/30 00:08:21;;;;;;;;;15.00;11.80;;;;;25.18;46.56;98408.41;6236124;28;97047;-61
2021/07/30 00:11:24;;;;;;;;;10.00;9.50;;;;;25.11;47.13;98399.03;6235319;28;96634;-62
2021/07/30 00:14:28;;;;;;;;;11.60;11.00;;;;;25.07;47.28;98396.09;6237163;27;96591;-61
2021/07/30 00:17:32;;;;;;;;;11.00;10.20;;;;;25.02;47.63;98402.59;6236726;28;96544;-62
2021/07/30 00:20:36;;;;;;;;;12.50;11.00;;;;;24.93;48.08;98398.25;6237026;27;97821;-61
2021/07/30 00:23:39;;;;;;;;;12.00;10.00;;;;;24.80;48.53;98389.00;6237087;27;96596;-61
2021/07/30 00:26:42;;;;;;;;;12.00;12.00;;;;;24.72;48.59;98389.00;6218683;28;97818;-62
2021/07/30 00:29:46;;;;;;;;;12.00;11.00;;;;;24.69;48.81;98393.22;6236812;28;97638;-61
2021/07/30 00:32:51;;;;;;;;;14.00;12.00;;;;;24.63;49.15;98391.75;6233695;27;96568;-62
2021/07/30 00:35:55;;;;;;;;;12.00;11.00;;;;;24.58;49.07;98400.22;6235633;27;96883;-62
2021/07/30 00:38:58;;;;;;;;;14.75;13.25;;;;;24.47;49.55;98385.97;6219573;28;96635;-61
2021/07/30 00:42:02;;;;;;;;;12.00;12.00;;;;;24.36;49.49;98392.91;6236343;27;96521;-61
2021/07/30 00:45:06;;;;;;;;;13.00;13.00;;;;;24.33;49.56;98395.50;6218692;27;97422;-61
2021/07/30 00:48:11;;;;;;;;;13.75;13.75;;;;;24.32;49.28;98393.88;6230426;28;96791;-61
2021/07/30 00:51:15;;;;;;;;;13.00;12.00;;;;;24.35;49.75;98401.50;6236620;27;96480;-61
2021/07/30 00:54:18;;;;;;;;;13.00;13.00;;;;;24.36;49.91;98398.44;6234967;28;96681;-62
2021/07/30 00:57:23;;;;;;;;;16.00;15.00;;;;;24.11;49.97;98358.69;6227102;28;96595;-61
2021/07/30 01:00:26;;;;;;;;;14.00;13.00;;;;;24.34;49.79;98394.34;6232624;28;97474;-62
2021/07/30 01:03:31;;;;;;;;;13.00;12.00;;;;;24.36;49.84;98386.59;6236973;28;97478;-62
2021/07/30 01:06:35;;;;;;;;;15.00;13.60;;;;;24.34;49.93;98388.84;6234489;27;97021;-62
2021/07/30 01:09:38;;;;;;;;;14.00;13.40;;;;;24.26;50.10;98384.16;6234657;28;97595;-62
2021/07/30 01:12:43;;;;;;;;;13.00;12.00;;;;;24.23;50.20;98388.38;6235755;27;97425;-62
2021/07/30 01:15:47;;;;;;;;;13.20;13.00;;;;;24.15;50.13;98384.44;6235855;27;97485;-62
2021/07/30 01:18:54;;;;;;;;;14.75;14.00;;;;;24.14;50.55;98387.53;6236408;28;98153;-62
2021/07/30 01:21:57;;;;;;;;;14.25;13.00;;;;;23.90;50.66;98351.34;6234136;27;97127;-62
2021/07/30 01:25:12;;;;;;;;;14.20;13.00;;;;;24.07;50.65;98385.25;6229708;28;96838;-61
2021/07/30 01:28:16;;;;;;;;;13.00;13.00;;;;;24.08;50.56;98391.56;6218547;28;96411;-62
2021/07/30 01:31:21;;;;;;;;;13.40;12.00;;;;;24.04;50.85;98380.38;6238359;28;97859;-62
2021/07/30 01:34:27;;;;;;;;;13.00;12.00;;;;;24.01;50.92;98378.25;6239941;28;96976;-62
2021/07/30 01:37:32;;;;;;;;;12.60;12.00;;;;;24.05;51.03;98384.75;6239953;27;96738;-62
2021/07/30 01:40:37;;;;;;;;;12.00;12.00;;;;;24.11;50.82;98385.41;6234575;27;96752;-63
2021/07/30 01:43:42;;;;;;;;;13.20;13.00;;;;;24.14;50.73;98382.03;6238716;28;97669;-62
2021/07/30 01:46:47;;;;;;;;;15.40;14.40;;;;;24.25;50.00;98377.00;6239783;28;97460;-62
2021/07/30 01:49:51;;;;;;;;;16.67;13.67;;;;;24.28;49.50;98381.91;6239805;27;97187;-62
2021/07/30 01:52:54;;;;;;;;;13.00;12.00;;;;;24.31;49.60;98373.78;6223490;28;96461;-62
2021/07/30 01:56:03;;;;;;;;;13.60;12.00;;;;;24.37;49.47;98377.19;6239929;27;97483;-62
2021/07/30 01:59:06;;;;;;;;;13.00;12.00;;;;;24.37;49.68;98379.94;6238746;27;97168;-61
2021/07/30 02:02:10;;;;;;;;;15.00;14.00;;;;;24.43;49.53;98375.91;6226922;28;97495;-61
2021/07/30 02:05:13;;;;;;;;;13.00;12.00;;;;;24.47;49.40;98376.88;6231951;27;96851;-62
2021/07/30 02:08:19;;;;;;;;;14.75;12.75;;;;;24.54;48.88;98379.94;6238482;28;97679;-61
2021/07/30 02:11:24;;;;;;;;;12.20;11.20;;;;;24.58;48.47;98372.66;6232923;28;96966;-62
2021/07/30 02:14:26;;;;;;;;;14.80;12.20;;;;;24.62;48.52;98372.81;6235545;28;96730;-61
2021/07/30 02:17:30;;;;;;;;;10.00;10.00;;;;;24.61;48.32;98372.00;6225680;28;97528;-62
2021/07/30 02:20:33;;;;;;;;;14.00;12.25;;;;;24.59;48.49;98377.81;6235072;28;96610;-61
2021/07/30 02:23:37;;;;;;;;;12.00;12.00;;;;;24.59;48.62;98369.56;6238865;27;96783;-62
2021/07/30 02:26:42;;;;;;;;;12.33;11.33;;;;;24.65;48.74;98372.16;6238315;27;97365;-62
2021/07/30 02:29:45;;;;;;;;;13.00;12.00;;;;;24.64;48.74;98376.03;6239171;27;98017;-61
2021/07/30 02:32:48;;;;;;;;;12.60;12.00;;;;;24.66;48.53;98371.84;6239028;28;97474;-61
2021/07/30 02:35:52;;;;;;;;;15.00;14.00;;;;;24.66;48.61;98371.84;6222485;27;97432;-61
2021/07/30 02:38:55;;;;;;;;;11.80;11.80;;;;;24.67;48.69;98369.88;6221489;28;97733;-62
2021/07/30 02:42:00;;;;;;;;;13.00;12.00;;;;;24.64;48.93;98370.53;6213642;28;97960;-62
2021/07/30 02:45:04;;;;;;;;;12.00;12.00;;;;;24.59;49.32;98369.56;6222704;28;97418;-61
2021/07/30 02:48:08;;;;;;;;;11.60;11.60;;;;;24.54;49.25;98372.47;6238403;27;96716;-61
2021/07/30 02:51:11;;;;;;;;;15.80;12.80;;;;;24.51;49.57;98370.38;6238405;27;96615;-62
2021/07/30 02:54:14;;;;;;;;;12.00;10.60;;;;;24.45;49.61;98370.88;6237073;27;97611;-61
2021/07/30 02:57:19;;;;;;;;;13.00;12.00;;;;;24.38;49.77;98368.63;6238795;27;97422;-61
2021/07/30 03:00:22;;;;;;;;;13.00;12.25;;;;;24.33;50.07;98373.47;6233138;28;96824;-61
2021/07/30 03:03:26;;;;;;;;;13.00;11.00;;;;;24.25;49.89;98372.31;6214127;28;96596;-62
2021/07/30 03:06:29;;;;;;;;;14.00;12.00;;;;;24.21;49.91;98374.09;6245936;27;96771;-62
2021/07/30 03:09:32;;;;;;;;;13.00;12.00;;;;;24.15;50.03;98361.59;6238452;27;97604;-61
2021/07/30 03:12:37;;;;;;;;;12.00;12.00;;;;;24.09;50.29;98358.19;6238250;27;96605;-61
2021/07/30 03:15:40;;;;;;;;;12.00;12.00;;;;;24.08;50.29;98367.59;6236685;28;97091;-62
2021/07/30 03:18:44;;;;;;;;;13.00;12.00;;;;;24.05;50.30;98372.91;6238209;27;97425;-61
2021/07/30 03:21:48;;;;;;;;;14.00;13.00;;;;;24.03;50.13;98372.44;6237943;27;96588;-62
2021/07/30 03:24:51;;;;;;;;;11.00;11.00;;;;;24.01;50.44;98371.94;6236749;27;96656;-61
2021/07/30 03:27:55;;;;;;;;;13.00;12.00;;;;;23.97;50.43;98365.47;6236454;27;97966;-61
2021/07/30 03:31:00;;;;;;;;;13.00;12.00;;;;;23.95;50.49;98364.97;6230532;27;97207;-61
2021/07/30 03:34:04;;;;;;;;;13.00;12.00;;;;;23.94;50.71;98366.13;6212145;28;97455;-61
2021/07/30 03:37:07;;;;;;;;;13.00;12.00;;;;;23.91;50.68;98356.53;6223123;28;96426;-61
2021/07/30 03:40:14;;;;;;;;;16.00;14.00;;;;;23.89;50.88;98363.53;6235321;27;97529;-61
2021/07/30 03:43:18;;;;;;;;;13.50;12.00;;;;;23.87;50.91;98365.78;6234091;28;97227;-61
2021/07/30 03:46:22;;;;;;;;;13.80;12.80;;;;;23.92;50.54;98369.19;6235619;27;97508;-61
2021/07/30 03:49:25;;;;;;;;;14.20;13.80;;;;;23.92;50.59;98368.38;6237663;27;96716;-61
2021/07/30 03:52:29;;;;;;;;;15.00;14.00;;;;;23.94;50.86;98366.94;6237041;27;97521;-62
2021/07/30 03:55:33;;;;;;;;;14.25;14.25;;;;;24.01;50.71;98370.00;6237809;27;96772;-61
2021/07/30 03:58:37;;;;;;;;;14.00;13.00;;;;;24.11;50.62;98375.19;6225546;28;99218;-62
2021/07/30 04:01:47;;;;;;;;;13.00;13.00;;;;;24.14;50.46;98376.50;6223476;27;97101;-61
2021/07/30 04:04:50;;;;;;;;;15.60;13.00;;;;;24.22;50.15;98378.50;6229134;28;97594;-62
2021/07/30 04:07:54;;;;;;;;;17.00;15.60;;;;;24.15;50.41;98376.16;6228146;28;97070;-62
2021/07/30 04:10:59;;;;;;;;;13.20;13.20;;;;;23.92;50.47;98341.66;6226407;28;96691;-62
2021/07/30 04:14:05;;;;;;;;;15.00;14.00;;;;;24.21;50.57;98379.63;6236123;28;97305;-62
2021/07/30 04:17:09;;;;;;;;;14.00;13.25;;;;;24.28;50.43;98377.19;6235198;28;98296;-62
2021/07/30 04:20:13;;;;;;;;;17.00;15.00;;;;;24.35;50.39;98373.94;6235573;28;97430;-62
2021/07/30 04:23:16;;;;;;;;;15.00;15.00;;;;;24.36;50.51;98376.38;6236385;27;96606;-61
2021/07/30 04:26:21;;;;;;;;;15.60;15.00;;;;;24.49;50.40;98380.09;6235665;28;97430;-61
2021/07/30 04:29:25;;;;;;;;;14.60;13.20;;;;;24.59;50.15;98388.03;6235684;28;97754;-62
2021/07/30 04:32:29;;;;;;;;;16.00;14.50;;;;;24.71;50.25;98382.69;6237059;27;97527;-62
2021/07/30 04:35:35;;;;;;;;;14.60;13.00;;;;;24.74;50.24;98368.25;6234374;28;97466;-62
2021/07/30 04:38:39;;;;;;;;;16.00;15.00;;;;;24.97;49.60;98388.97;6235603;28;96650;-61
2021/07/30 04:41:42;;;;;;;;;17.40;17.00;;;;;25.16;48.86;98385.06;6227565;27;98008;-62
2021/07/30 04:44:47;;;;;;;;;13.25;13.00;;;;;25.31;48.64;98392.81;6229428;27;96554;-61
2021/07/30 04:47:50;;;;;;;;;13.60;13.00;;;;;25.45;48.89;98393.41;6232431;27;96857;-61
2021/07/30 04:50:54;;;;;;;;;16.00;16.00;;;;;25.61;47.78;98388.19;6238292;27;97596;-61
2021/07/30 04:53:57;;;;;;;;;13.00;12.00;;;;;25.74;47.56;98387.13;6236988;27;96434;-62
2021/07/30 04:57:00;;;;;;;;;13.40;13.00;;;;;25.81;47.90;98387.41;6231981;27;97162;-61
2021/07/30 05:00:06;;;;;;;;;13.00;13.00;;;;;25.92;48.08;98393.34;6233338;27;97407;-62
2021/07/30 05:03:10;;;;;;;;;14.20;13.20;;;;;25.97;47.64;98393.97;6225972;28;97004;-61
2021/07/30 05:06:14;;;;;;;;;13.00;12.00;;;;;25.99;47.01;98388.94;6222714;28;98636;-61
2021/07/30 05:09:18;;;;;;;;;16.00;14.20;;;;;26.08;46.87;98389.69;6241660;27;96893;-62
2021/07/30 05:12:21;;;;;;;;;16.00;15.00;;;;;26.16;46.34;98390.75;6229163;27;97165;-61
2021/07/30 05:15:26;;;;;;;;;14.00;13.00;;;;;26.18;45.71;98372.72;6232704;28;96741;-61
2021/07/30 05:18:29;;;;;;;;;13.00;12.00;;;;;26.23;45.64;98378.06;6237955;28;97102;-61
2021/07/30 05:21:32;;;;;;;;;16.40;13.40;;;;;26.28;46.01;98383.41;6241809;27;97554;-62
2021/07/30 05:24:37;;;;;;;;;12.00;12.00;;;;;26.36;45.79;98384.47;6239639;28;97395;-62
2021/07/30 05:27:40;;;;;;;;;13.00;12.00;;;;;26.38;46.24;98373.09;6232094;27;96902;-64
2021/07/30 05:30:45;;;;;;;;;14.00;13.60;;;;;26.47;46.17;98363.56;6237369;28;97529;-61
2021/07/30 05:33:48;;;;;;;;;15.75;13.00;;;;;26.61;46.37;98374.34;6235393;28;96681;-62
2021/07/30 05:36:52;;;;;;;;;13.00;12.00;;;;;26.66;44.82;98368.59;6239848;28;97475;-62
2021/07/30 05:39:55;;;;;;;;;11.00;10.40;;;;;26.68;45.47;98369.06;6237659;28;98570;-64
2021/07/30 05:42:58;;;;;;;;;11.00;11.00;;;;;26.86;45.44;98375.25;6239775;27;97375;-62
2021/07/30 05:46:03;;;;;;;;;11.75;11.00;;;;;27.01;45.31;98380.97;6240497;27;97477;-62
2021/07/30 05:49:07;;;;;;;;;12.25;10.75;;;;;27.06;44.15;98378.00;6241542;27;97427;-62
2021/07/30 05:52:10;;;;;;;;;11.00;10.50;;;;;27.20;43.38;98382.38;6241354;27;96611;-62
2021/07/30 05:55:14;;;;;;;;;12.00;12.00;;;;;27.34;43.30;98385.66;6239353;28;97435;-62
2021/07/30 05:58:17;;;;;;;;;11.00;10.00;;;;;27.41;43.88;98381.16;6241037;27;97382;-61
2021/07/30 06:01:21;;;;;;;;;12.20;11.00;;;;;27.49;43.50;98393.31;6241280;27;97405;-62
2021/07/30 06:04:25;;;;;;;;;13.00;11.00;;;;;27.64;42.82;98400.13;6241529;27;96943;-62
2021/07/30 06:07:28;;;;;;;;;11.80;10.40;;;;;27.70;42.54;98398.75;6240073;27;96622;-61
2021/07/30 06:10:33;;;;;;;;;12.00;11.00;;;;;27.78;42.75;98406.13;6239228;28;96596;-61
2021/07/30 06:13:36;;;;;;;;;11.00;11.00;;;;;27.87;43.17;98393.78;6222115;28;98455;-62
2021/07/30 06:16:41;;;;;;;;;11.60;11.60;;;;;27.91;43.25;98402.19;6240076;27;97544;-61
2021/07/30 06:19:45;;;;;;;;;11.00;11.00;;;;;27.97;42.01;98409.13;6239452;27;97721;-62
2021/07/30 06:22:49;;;;;;;;;11.00;11.00;;;;;28.15;42.53;98406.97;6239487;27;97445;-64
2021/07/30 06:25:53;;;;;;;;;13.20;11.20;;;;;28.20;41.76;98399.19;6230133;28;97820;-62
2021/07/30 06:28:56;;;;;;;;;12.40;11.40;;;;;28.26;41.15;98413.63;6240462;27;97364;-62
2021/07/30 06:32:01;;;;;;;;;10.50;10.00;;;;;28.33;41.14;98417.44;6237803;27;97911;-62
2021/07/30 06:35:05;;;;;;;;;14.00;12.40;;;;;28.38;40.95;98411.66;6241270;27;97496;-61
2021/07/30 06:38:08;;;;;;;;;15.40;13.40;;;;;28.57;40.47;98405.47;6237505;28;97693;-64
2021/07/30 06:41:14;;;;;;;;;13.20;13.00;;;;;28.61;40.19;98403.59;6236767;28;98294;-62
2021/07/30 06:44:17;;;;;;;;;12.00;11.00;;;;;28.75;40.29;98408.78;6232136;28;96714;-62
2021/07/30 06:47:23;;;;;;;;;12.00;11.00;;;;;28.81;40.64;98399.03;6226903;28;97120;-62
2021/07/30 06:50:26;;;;;;;;;13.60;13.00;;;;;28.85;40.61;98397.19;6238832;27;97460;-61
2021/07/30 06:53:29;;;;;;;;;11.00;11.00;;;;;28.91;40.26;98400.50;6238764;27;97267;-62
2021/07/30 06:56:34;;;;;;;;;12.00;12.00;;;;;28.97;40.35;98401.88;6238696;28;97503;-61
2021/07/30 06:59:37;;;;;;;;;10.00;10.00;;;;;28.93;38.93;98382.31;6236522;28;96695;-61
2021/07/30 07:02:42;;;;;;;;;11.00;10.00;;;;;29.14;38.59;98399.56;6239089;28;97450;-62
2021/07/30 07:05:46;;;;;;;;;8.20;8.00;;;;;29.14;38.98;98402.34;6238006;27;96487;-61
2021/07/30 07:08:49;;;;;;;;;10.00;9.80;;;;;29.27;38.80;98401.09;6238570;27;96995;-62
2021/07/30 07:11:52;;;;;;;;;10.00;10.00;;;;;29.41;37.85;98399.91;6233407;27;96632;-62
2021/07/30 07:14:55;;;;;;;;;9.00;9.00;;;;;29.53;37.40;98399.81;6220811;28;96679;-61
2021/07/30 07:18:00;;;;;;;;;11.00;10.00;;;;;29.74;38.18;98407.88;6238274;28;96932;-61
2021/07/30 07:21:03;;;;;;;;;9.50;8.50;;;;;29.87;37.02;98404.63;6237956;27;97970;-62
2021/07/30 07:24:08;;;;;;;;;9.00;8.40;;;;;30.02;36.53;98401.06;6239953;27;97536;-62
2021/07/30 07:27:11;;;;;;;;;9.33;9.00;;;;;30.03;36.73;98396.31;6237909;27;97984;-61
2021/07/30 07:30:15;;;;;;;;;9.40;9.00;;;;;30.16;35.85;98395.03;6237588;27;97375;-61
2021/07/30 07:33:19;;;;;;;;;9.00;9.00;;;;;30.20;35.88;98393.16;6237567;27;96553;-61
2021/07/30 07:36:23;;;;;;;;;10.60;10.00;;;;;30.41;35.75;98398.34;6236165;28;100498;-61
2021/07/30 07:39:26;;;;;;;;;9.00;9.00;;;;;30.57;35.82;98390.00;6237889;27;96477;-61
2021/07/30 07:42:29;;;;;;;;;9.20;8.00;;;;;30.74;35.54;98392.34;6237451;27;98286;-62
2021/07/30 07:45:33;;;;;;;;;10.50;10.00;;;;;31.05;35.84;98392.19;6228193;28;96830;-62
2021/07/30 07:48:38;;;;;;;;;10.00;10.00;;;;;31.25;34.39;98398.53;6236396;28;97012;-62
2021/07/30 07:51:41;;;;;;;;;11.00;10.00;;;;;31.41;34.05;98388.09;6235536;27;97452;-62
2021/07/30 07:54:45;;;;;;;;;12.00;11.00;;;;;31.52;34.01;98389.06;6237920;27;97271;-62
2021/07/30 07:57:49;;;;;;;;;8.40;8.00;;;;;31.71;33.35;98389.03;6229006;28;98056;-62
2021/07/30 08:00:55;;;;;;;;;10.60;10.00;;;;;32.00;33.15;98384.72;6225802;28;97435;-63
2021/07/30 08:04:01;;;;;;;;;9.00;9.00;;;;;32.39;32.96;98381.72;6224078;27;97123;-63
2021/07/30 08:07:07;;;;;;;;;9.00;8.00;;;;;32.65;32.50;98376.88;6226057;27;97842;-63
2021/07/30 08:10:11;;;;;;;;;8.00;8.00;;;;;32.92;31.66;98374.03;6240900;27;97409;-63
2021/07/30 08:13:15;;;;;;;;;10.25;10.25;;;;;32.86;31.53;98367.16;6227404;27;97582;-63
2021/07/30 08:16:23;;;;;;;;;11.50;10.00;;;;;32.79;31.51;98379.06;6227586;28;96862;-63
2021/07/30 08:19:28;;;;;;;;;10.00;9.00;;;;;32.83;32.23;98374.31;6208726;28;98321;-62
2021/07/30 08:22:32;;;;;;;;;9.25;9.00;;;;;32.96;31.45;98372.88;6223907;28;96718;-60
2021/07/30 08:25:36;;;;;;;;;10.40;9.00;;;;;33.08;31.40;98381.00;6217930;28;97854;-61
2021/07/30 08:28:39;;;;;;;;;7.00;7.00;;;;;33.20;31.33;98377.13;6233132;28;98524;-61
2021/07/30 08:31:43;;;;;;;;;10.75;8.75;;;;;33.39;30.87;98382.50;6222011;28;97615;-61
2021/07/30 08:34:48;;;;;;;;;9.00;9.00;;;;;33.62;30.14;98387.94;6221337;28;97574;-63
2021/07/30 08:37:51;;;;;;;;;9.80;8.20;;;;;33.80;30.26;98376.91;6227098;28;96888;-61
2021/07/30 08:40:54;;;;;;;;;10.00;9.40;;;;;33.87;29.90;98382.53;6224381;28;97271;-61
2021/07/30 08:43:57;;;;;;;;;10.50;9.50;;;;;33.99;29.33;98376.66;6219908;28;96699;-61
2021/07/30 08:47:02;;;;;;;;;9.40;9.40;;;;;33.87;29.03;98374.16;6223629;28;97281;-61
2021/07/30 08:50:08;;;;;;;;;10.00;9.00;;;;;33.86;30.21;98359.41;6223846;28;96617;-61
2021/07/30 08:53:20;;;;;;;;;10.00;8.00;;;;;33.90;29.97;98367.81;6207622;28;97774;-62
2021/07/30 08:56:23;;;;;;;;;12.00;11.00;;;;;33.86;30.33;98365.00;6227087;28;97328;-62
2021/07/30 08:59:27;;;;;;;;;9.40;9.00;;;;;33.80;29.71;98368.53;6220408;28;96532;-62
2021/07/30 09:02:30;;;;;;;;;11.25;10.00;;;;;33.97;30.12;98369.81;6226454;27;96699;-62
2021/07/30 09:05:37;;;;;;;;;9.50;9.00;;;;;34.22;30.30;98368.03;6224964;28;97703;-62
2021/07/30 09:08:40;;;;;;;;;9.00;9.00;;;;;34.43;29.50;98362.56;6222731;28;98399;-62
2021/07/30 09:11:43;;;;;;;;;11.40;10.40;;;;;34.69;29.55;98361.50;6230203;28;97173;-62
2021/07/30 09:14:48;;;;;;;;;10.50;10.00;;;;;34.85;29.16;98356.34;6221579;28;97417;-61
2021/07/30 09:17:51;;;;;;;;;7.20;7.20;;;;;35.03;29.02;98345.19;6229007;28;97428;-62
2021/07/30 09:21:15;;;;;;;;;9.00;9.00;;;;;35.19;29.00;98346.44;6222820;28;96809;-62
2021/07/30 09:24:19;;;;;;;;;10.60;10.40;;;;;35.22;28.00;98327.25;6227416;28;97383;-62
2021/07/30 09:27:22;;;;;;;;;10.75;9.25;;;;;35.47;28.98;98339.28;6223811;28;98026;-62
2021/07/30 09:30:26;;;;;;;;;10.00;10.00;;;;;35.51;28.60;98334.47;6223583;27;96710;-62
2021/07/30 09:33:29;;;;;;;;;8.40;8.40;;;;;35.47;28.35;98323.25;6227472;27;97167;-61
2021/07/30 09:36:43;;;;;;;;;11.00;10.00;;;;;35.42;28.96;98326.47;6223238;28;98059;-62
2021/07/30 09:39:53;;;;;;;;;10.40;9.40;;;;;35.57;28.97;98314.03;6227780;28;96688;-61
2021/07/30 09:42:57;;;;;;;;;8.00;7.00;;;;;35.76;27.60;98323.25;6214579;28;97265;-61
2021/07/30 09:46:12;;;;;;;;;11.60;11.60;;;;;35.85;27.71;98313.25;6228885;27;97137;-61
2021/07/30 09:49:16;;;;;;;;;11.00;10.00;;;;;35.87;27.84;98316.41;6229942;28;96726;-62
2021/07/30 09:52:23;;;;;;;;;10.60;9.60;;;;;36.03;27.93;98307.56;6227170;28;97223;-62
2021/07/30 09:55:26;;;;;;;;;9.00;9.00;;;;;36.10;27.86;98301.97;6232816;28;97127;-61
2021/07/30 09:58:30;;;;;;;;;9.00;9.00;;;;;36.33;28.03;98296.69;6231132;28;97174;-61
2021/07/30 10:01:33;;;;;;;;;8.80;8.80;;;;;36.45;28.05;98296.25;6218400;28;96610;-62
2021/07/30 10:04:40;;;;;;;;;10.00;10.00;;;;;36.66;27.69;98291.75;6230660;28;97180;-61
2021/07/30 10:07:45;;;;;;;;;11.00;10.00;;;;;36.72;27.27;98282.47;6228434;28;99509;-61
2021/07/30 10:10:49;;;;;;;;;12.00;10.75;;;;;36.96;27.96;98285.53;6230706;28;97071;-61
2021/07/30 10:13:52;;;;;;;;;9.25;9.25;;;;;37.04;26.25;98285.09;6227107;28;97459;-61
2021/07/30 10:17:02;;;;;;;;;9.00;9.00;;;;;37.20;27.26;98276.97;6225197;28;97029;-61
2021/07/30 10:20:07;;;;;;;;;9.00;9.00;;;;;37.34;26.35;98276.03;6225818;27;97244;-61
2021/07/30 10:23:18;;;;;;;;;10.40;8.00;;;;;37.52;26.63;98270.28;6229297;27;97410;-61
2021/07/30 10:26:27;;;;;;;;;9.40;9.00;;;;;37.56;25.76;98269.06;6229543;28;97219;-62
2021/07/30 10:30:01;;;;;;;;;9.80;9.00;;;;;37.74;25.68;98266.06;6226946;28;96616;-61
2021/07/30 10:33:05;;;;;;;;;9.00;9.00;;;;;37.74;24.89;98260.44;6225055;28;97703;-61
2021/07/30 10:36:12;;;;;;;;;8.20;8.00;;;;;37.77;25.33;98258.81;6226592;28;96952;-61
2021/07/30 10:39:18;;;;;;;;;9.25;9.00;;;;;37.72;24.29;98257.25;6226172;28;97471;-62
2021/07/30 10:42:21;;;;;;;;;9.40;9.40;;;;;37.73;23.59;98268.06;6230107;28;97468;-62
2021/07/30 10:45:24;;;;;;;;;10.80;9.20;;;;;37.60;24.66;98250.13;6224244;27;96705;-61
2021/07/30 10:48:31;;;;;;;;;10.00;9.00;;;;;37.59;24.19;98245.72;6229518;28;96627;-62
2021/07/30 10:51:35;;;;;;;;;10.20;8.00;;;;;37.65;25.21;98249.69;6229887;27;96701;-61
2021/07/30 10:54:50;;;;;;;;;8.25;8.25;;;;;37.52;25.41;98240.16;6230041;28;97455;-62
2021/07/30 10:57:57;;;;;;;;;10.00;8.20;;;;;37.53;25.55;98235.31;6224594;28;96760;-62
2021/07/30 11:01:00;;;;;;;;;9.00;9.00;;;;;37.61;25.26;98236.88;6226870;28;98072;-62
2021/07/30 11:04:04;;;;;;;;;7.80;7.80;;;;;37.81;25.11;98234.25;6227299;28;98572;-62
2021/07/30 11:07:08;;;;;;;;;10.40;9.60;;;;;37.84;24.98;98233.41;6237745;28;97302;-62
2021/07/30 11:10:17;;;;;;;;;7.00;7.00;;;;;37.87;25.03;98226.94;6237704;27;97054;-62
2021/07/30 11:13:21;;;;;;;;;7.60;7.60;;;;;37.89;24.25;98221.69;6239599;27;96505;-62
2021/07/30 11:16:24;;;;;;;;;10.60;9.60;;;;;38.01;24.32;98213.53;6236892;27;96583;-62
2021/07/30 11:19:29;;;;;;;;;9.00;8.60;;;;;38.02;25.08;98214.34;6236279;27;96566;-62
2021/07/30 11:22:33;;;;;;;;;9.75;9.75;;;;;37.91;24.00;98216.44;6236082;28;96609;-62
2021/07/30 11:25:38;;;;;;;;;9.00;9.00;;;;;37.74;24.01;98207.78;6233366;27;97527;-61
2021/07/30 11:28:42;;;;;;;;;9.00;9.00;;;;;37.97;25.11;98201.50;6237660;28;96888;-62
2021/07/30 11:31:54;;;;;;;;;8.40;7.60;;;;;38.21;24.65;98216.50;6238405;28;96921;-62
2021/07/30 11:35:08;;;;;;;;;9.20;8.20;;;;;38.20;23.53;98211.28;6221530;28;97495;-62
2021/07/30 11:38:11;;;;;;;;;8.20;8.00;;;;;37.99;24.49;98204.72;6225575;28;97087;-62
2021/07/30 11:41:17;;;;;;;;;10.40;10.00;;;;;37.88;24.28;98218.06;6230068;28;97871;-62
2021/07/30 11:44:20;;;;;;;;;10.00;10.00;;;;;37.91;23.79;98213.63;6225998;28;97514;-62
2021/07/30 11:47:25;;;;;;;;;9.40;8.00;;;;;37.57;23.76;98193.94;6226445;27;97384;-62
2021/07/30 11:50:30;;;;;;;;;7.40;7.40;;;;;37.60;24.43;98204.31;6230041;28;97152;-62
2021/07/30 11:53:34;;;;;;;;;7.50;7.00;;;;;37.46;24.84;98198.81;6225783;27;97431;-62
2021/07/30 11:56:44;;;;;;;;;8.00;7.00;;;;;37.50;24.06;98203.19;6228705;27;97956;-62
2021/07/30 11:59:49;;;;;;;;;7.40;7.40;;;;;37.56;25.24;98184.69;6228865;28;97657;-62
2021/07/30 12:02:54;;;;;;;;;8.20;8.00;;;;;37.78;24.99;98190.84;6234462;27;97505;-61
2021/07/30 12:05:58;;;;;;;;;7.00;6.00;;;;;37.75;25.96;98188.91;6236960;28;97114;-61
2021/07/30 12:09:01;;;;;;;;;8.40;8.40;;;;;37.87;24.77;98196.81;6235754;27;97179;-61
2021/07/30 12:12:08;;;;;;;;;9.60;8.00;;;;;38.06;25.89;98181.31;6237557;27;97230;-61
2021/07/30 12:15:13;;;;;;;;;8.20;8.00;;;;;38.21;24.68;98182.72;6234965;27;97547;-61
2021/07/30 12:18:17;;;;;;;;;8.20;7.00;;;;;38.26;24.06;98187.91;6232931;28;96785;-62
2021/07/30 12:21:20;;;;;;;;;9.00;8.00;;;;;38.35;23.72;98182.53;6223117;27;96555;-61
2021/07/30 12:24:24;;;;;;;;;7.75;7.75;;;;;38.42;23.86;98179.59;6221665;28;97125;-61
2021/07/30 12:27:30;;;;;;;;;8.00;8.00;;;;;38.57;24.45;98175.38;6226056;27;97158;-61
2021/07/30 12:30:34;;;;;;;;;11.00;10.00;;;;;38.64;23.79;98174.50;6226332;27;97415;-62
2021/07/30 12:33:37;;;;;;;;;10.50;9.00;;;;;38.65;24.05;98178.91;6225605;28;97418;-61
2021/07/30 12:36:44;;;;;;;;;9.40;9.00;;;;;38.49;23.21;98162.63;6224531;27;96593;-61
2021/07/30 12:39:48;;;;;;;;;11.00;9.00;;;;;38.13;24.32;98161.50;6224373;28;97479;-62
2021/07/30 12:43:08;;;;;;;;;9.00;9.00;;;;;37.96;24.75;98166.13;6226743;27;96532;-62
2021/07/30 12:46:12;;;;;;;;;8.00;7.80;;;;;38.07;25.02;98160.41;6226027;28;96997;-62
2021/07/30 12:49:27;;;;;;;;;8.00;8.00;;;;;38.27;25.64;98160.53;6224733;28;97406;-62
2021/07/30 12:52:32;;;;;;;;;9.00;9.00;;;;;38.39;23.99;98149.47;6227803;28;96452;-62
2021/07/30 12:56:02;;;;;;;;;12.00;10.00;;;;;38.47;23.60;98142.53;6224956;28;97490;-62
2021/07/30 12:59:07;;;;;;;;;10.00;9.60;;;;;38.54;23.76;98136.00;6224451;28;97438;-61
2021/07/30 13:02:10;;;;;;;;;7.40;7.00;;;;;38.42;23.53;98143.00;6226684;28;96520;-63
2021/07/30 13:05:17;;;;;;;;;10.00;9.00;;;;;38.39;23.64;98143.84;6222164;28;97189;-63
2021/07/30 13:08:22;;;;;;;;;8.00;8.00;;;;;38.22;24.03;98130.81;6230227;28;97400;-63
2021/07/30 13:11:25;;;;;;;;;11.00;11.00;;;;;38.08;24.70;98136.66;6223338;28;97825;-61
2021/07/30 13:14:30;;;;;;;;;10.00;9.60;;;;;38.13;24.92;98142.59;6227973;27;97499;-63
2021/07/30 13:17:34;;;;;;;;;9.00;8.00;;;;;38.11;23.66;98130.19;6225758;28;96653;-63
2021/07/30 13:20:38;;;;;;;;;9.00;9.00;;;;;37.92;24.65;98130.81;6230819;27;97763;-63
2021/07/30 13:23:41;;;;;;;;;7.00;7.00;;;;;37.78;24.40;98114.91;6230004;28;96574;-63
2021/07/30 13:26:45;;;;;;;;;8.60;8.00;;;;;37.83;24.66;98122.88;6227888;28;97220;-63
2021/07/30 13:29:49;;;;;;;;;9.60;9.60;;;;;37.71;24.47;98123.44;6229811;28;96501;-63
2021/07/30 13:32:52;;;;;;;;;10.60;10.00;;;;;37.74;25.07;98123.38;6230243;28;97039;-63
2021/07/30 13:35:56;;;;;;;;;9.75;9.25;;;;;37.85;25.06;98117.63;6229720;28;96643;-62
2021/07/30 13:38:59;;;;;;;;;9.00;8.00;;;;;37.89;24.80;98106.31;6234775;27;97495;-62
2021/07/30 13:42:03;;;;;;;;;11.00;10.00;;;;;37.88;24.59;98116.78;6239972;28;98033;-62
2021/07/30 13:45:09;;;;;;;;;10.00;10.00;;;;;37.94;24.55;98103.03;6232075;28;96982;-62
2021/07/30 13:48:13;;;;;;;;;10.00;8.25;;;;;38.00;24.98;98102.19;6235054;28;97627;-63
2021/07/30 13:51:16;;;;;;;;;10.00;9.00;;;;;37.92;24.38;98106.28;6242371;27;96816;-62
2021/07/30 13:54:20;;;;;;;;;10.00;9.00;;;;;37.81;24.64;98102.03;6241488;28;97478;-63
2021/07/30 13:57:23;;;;;;;;;10.00;10.00;;;;;37.70;24.92;98088.09;6238794;27;96677;-63
2021/07/30 14:00:28;;;;;;;;;8.00;8.00;;;;;37.62;24.80;98095.03;6235968;28;99624;-63
2021/07/30 14:03:31;;;;;;;;;10.40;9.80;;;;;37.45;25.46;98088.34;6241634;27;97210;-62
2021/07/30 14:06:34;;;;;;;;;9.00;9.00;;;;;37.38;25.39;98082.03;6242633;27;96914;-63
2021/07/30 14:09:39;;;;;;;;;12.00;9.40;;;;;37.33;24.79;98088.13;6240455;27;97535;-62
2021/07/30 14:12:43;;;;;;;;;7.60;7.00;;;;;37.42;25.80;98080.78;6239913;27;97484;-63
2021/07/30 14:15:48;;;;;;;;;11.00;11.00;;;;;37.41;26.00;98081.97;6237110;28;97807;-60